Time;durP1;ratioP1;P1;durP2;ratioP2;P2;SDS_P1;SDS_P2;PMS_P1;PMS_P2;Temp;Humidity;BMP_temperature;BMP_pressure;BME280_temperature;BME280_humidity;BME280_pressure;Samples;Min_cycle;Max_cycle;Signal;HPM_P1;HPM_P2
2023/09/29 00:01:13;;;;;;;6.13;5.53;;;;;;;;;;4910071;29;20211;-76
2023/09/29 00:03:40;;;;;;;7.40;5.37;;;;;;;;;;4897842;29;20757;-77
2023/09/29 00:06:07;;;;;;;7.20;5.50;;;;;;;;;;4884571;29;20291;-77
2023/09/29 00:08:34;;;;;;;8.00;6.30;;;;;;;;;;4883190;29;20207;-76
2023/09/29 00:11:00;;;;;;;8.27;5.97;;;;;;;;;;4889966;29;20214;-77
2023/09/29 00:13:27;;;;;;;6.10;5.50;;;;;;;;;;4900361;29;20290;-77
2023/09/29 00:15:53;;;;;;;6.80;5.67;;;;;;;;;;4897598;29;20696;-77
2023/09/29 00:18:19;;;;;;;6.00;5.17;;;;;;;;;;4900245;29;20211;-77
2023/09/29 00:20:45;;;;;;;8.33;5.90;;;;;;;;;;4899608;29;20220;-76
2023/09/29 00:23:12;;;;;;;5.57;5.07;;;;;;;;;;4899834;29;20199;-77
2023/09/29 00:25:39;;;;;;;5.73;5.13;;;;;;;;;;4899179;29;20235;-77
2023/09/29 00:28:05;;;;;;;6.90;5.70;;;;;;;;;;4916427;29;20207;-77
2023/09/29 00:30:32;;;;;;;7.53;5.87;;;;;;;;;;4900012;29;20213;-76
2023/09/29 00:32:58;;;;;;;6.20;5.50;;;;;;;;;;4875742;29;20183;-76
2023/09/29 00:35:24;;;;;;;8.53;5.63;;;;;;;;;;4900628;29;20227;-77
2023/09/29 00:37:51;;;;;;;8.27;5.70;;;;;;;;;;4898346;29;20203;-77
2023/09/29 00:40:17;;;;;;;7.53;5.50;;;;;;;;;;4898894;29;20677;-77
2023/09/29 00:42:46;;;;;;;7.77;5.57;;;;;;;;;;4896115;29;20195;-77
2023/09/29 00:45:16;;;;;;;6.43;5.00;;;;;;;;;;4899163;29;20670;-77
2023/09/29 00:47:44;;;;;;;6.13;5.23;;;;;;;;;;4894372;29;20241;-77
2023/09/29 00:50:11;;;;;;;7.50;5.33;;;;;;;;;;4896644;29;20259;-76
2023/09/29 00:52:38;;;;;;;7.47;5.50;;;;;;;;;;4898692;29;20187;-77
2023/09/29 00:55:06;;;;;;;9.23;5.70;;;;;;;;;;4880599;29;20322;-77
2023/09/29 00:57:34;;;;;;;7.33;5.40;;;;;;;;;;4896329;29;20179;-77
2023/09/29 01:00:00;;;;;;;7.30;5.63;;;;;;;;;;4892307;29;20195;-77
2023/09/29 01:02:28;;;;;;;7.17;5.40;;;;;;;;;;4908574;29;20198;-76
2023/09/29 01:04:54;;;;;;;6.63;5.50;;;;;;;;;;4912050;29;20207;-77
2023/09/29 01:07:20;;;;;;;6.17;5.30;;;;;;;;;;4897266;29;20195;-76
2023/09/29 01:09:47;;;;;;;8.30;5.33;;;;;;;;;;4893421;29;20210;-76
2023/09/29 01:12:27;;;;;;;7.67;5.80;;;;;;;;;;4897335;29;20226;-76
2023/09/29 01:14:53;;;;;;;8.70;5.27;;;;;;;;;;4911392;29;20961;-77
2023/09/29 01:17:20;;;;;;;6.73;5.63;;;;;;;;;;4896408;29;20187;-77
2023/09/29 01:19:48;;;;;;;9.60;6.00;;;;;;;;;;4898079;29;20181;-76
2023/09/29 01:22:14;;;;;;;8.23;5.83;;;;;;;;;;4897126;29;20544;-77
2023/09/29 01:24:41;;;;;;;7.53;5.47;;;;;;;;;;4880930;29;20207;-77
2023/09/29 01:27:07;;;;;;;6.50;5.20;;;;;;;;;;4896375;29;20191;-77
2023/09/29 01:29:34;;;;;;;8.17;5.00;;;;;;;;;;4896332;29;20219;-77
2023/09/29 01:32:01;;;;;;;7.57;5.57;;;;;;;;;;4897441;29;20690;-77
2023/09/29 01:34:31;;;;;;;6.73;5.00;;;;;;;;;;4895469;29;20229;-77
2023/09/29 01:36:59;;;;;;;6.70;5.40;;;;;;;;;;4895595;29;20549;-76
2023/09/29 01:39:26;;;;;;;7.40;5.10;;;;;;;;;;4893632;29;20238;-77
2023/09/29 01:41:52;;;;;;;7.93;5.27;;;;;;;;;;4907087;23;20253;-76
2023/09/29 01:44:18;;;;;;;5.80;5.20;;;;;;;;;;4928485;29;20209;-77
2023/09/29 01:46:44;;;;;;;8.47;5.10;;;;;;;;;;4930457;29;20719;-77
2023/09/29 01:49:11;;;;;;;7.30;5.57;;;;;;;;;;4931682;29;20242;-76
2023/09/29 01:51:37;;;;;;;5.73;5.13;;;;;;;;;;4911191;29;20182;-77
2023/09/29 01:54:03;;;;;;;7.20;5.13;;;;;;;;;;4912439;29;20194;-76
2023/09/29 01:56:31;;;;;;;7.00;5.30;;;;;;;;;;4912220;29;20265;-77
2023/09/29 01:58:58;;;;;;;7.47;5.80;;;;;;;;;;4909446;29;20213;-76
2023/09/29 02:01:24;;;;;;;7.67;5.20;;;;;;;;;;4896054;29;20657;-77
2023/09/29 02:03:50;;;;;;;6.00;5.07;;;;;;;;;;4912440;29;20187;-76
2023/09/29 02:06:17;;;;;;;6.87;5.27;;;;;;;;;;4912367;29;20273;-76
2023/09/29 02:08:44;;;;;;;5.93;5.33;;;;;;;;;;4913648;29;20214;-77
2023/09/29 02:11:11;;;;;;;7.17;5.17;;;;;;;;;;4897023;29;20202;-77
2023/09/29 02:13:39;;;;;;;8.30;5.73;;;;;;;;;;4911826;29;20194;-77
2023/09/29 02:16:11;;;;;;;7.93;5.23;;;;;;;;;;4911599;29;20696;-76
2023/09/29 02:18:38;;;;;;;5.90;5.30;;;;;;;;;;4911978;29;20202;-77
2023/09/29 02:21:06;;;;;;;5.73;5.13;;;;;;;;;;4911763;29;20245;-76
2023/09/29 02:23:33;;;;;;;6.03;5.00;;;;;;;;;;4912259;29;20598;-76
2023/09/29 02:26:00;;;;;;;5.60;4.93;;;;;;;;;;4908738;29;20186;-77
2023/09/29 02:28:31;;;;;;;5.43;4.50;;;;;;;;;;4913059;29;20210;-76
2023/09/29 02:30:58;;;;;;;5.93;4.97;;;;;;;;;;4912918;29;20550;-77
2023/09/29 02:33:27;;;;;;;9.37;5.40;;;;;;;;;;4912405;29;20281;-76
2023/09/29 02:35:53;;;;;;;6.30;5.30;;;;;;;;;;4915433;29;20244;-76
2023/09/29 02:38:19;;;;;;;5.97;5.37;;;;;;;;;;4917047;29;20217;-76
2023/09/29 02:40:47;;;;;;;8.10;5.43;;;;;;;;;;4915318;29;20293;-77
2023/09/29 02:43:13;;;;;;;6.13;5.03;;;;;;;;;;4909411;29;20206;-77
2023/09/29 02:45:40;;;;;;;8.83;5.23;;;;;;;;;;4892619;29;20191;-76
2023/09/29 02:48:06;;;;;;;10.10;5.67;;;;;;;;;;4925991;29;20763;-77
2023/09/29 02:50:36;;;;;;;7.67;5.43;;;;;;;;;;4910910;29;20572;-77
2023/09/29 02:53:05;;;;;;;7.83;5.27;;;;;;;;;;4900169;29;20558;-77
2023/09/29 02:55:33;;;;;;;10.37;5.80;;;;;;;;;;4915640;29;20708;-76
2023/09/29 02:57:59;;;;;;;8.07;5.60;;;;;;;;;;4916824;29;20213;-76
2023/09/29 03:00:27;;;;;;;6.87;5.30;;;;;;;;;;4908766;29;20198;-76
2023/09/29 03:02:54;;;;;;;8.30;5.47;;;;;;;;;;4914148;29;20645;-77
2023/09/29 03:05:21;;;;;;;8.27;5.13;;;;;;;;;;4895979;29;20653;-76
2023/09/29 03:07:47;;;;;;;8.33;5.00;;;;;;;;;;4930857;29;20309;-76
2023/09/29 03:10:14;;;;;;;9.57;5.67;;;;;;;;;;4915174;29;20214;-76
2023/09/29 03:12:41;;;;;;;6.57;5.37;;;;;;;;;;4916442;29;20186;-76
2023/09/29 03:15:08;;;;;;;8.37;5.73;;;;;;;;;;4914122;29;20576;-77
2023/09/29 03:17:34;;;;;;;6.97;5.53;;;;;;;;;;4913322;29;20583;-77
2023/09/29 03:20:08;;;;;;;6.97;5.80;;;;;;;;;;4915990;29;20559;-77
2023/09/29 03:22:37;;;;;;;6.57;5.10;;;;;;;;;;4915964;29;20211;-77
2023/09/29 03:25:07;;;;;;;8.73;5.63;;;;;;;;;;4916604;29;20183;-77
2023/09/29 03:27:34;;;;;;;6.47;5.40;;;;;;;;;;4914350;29;20190;-76
2023/09/29 03:30:01;;;;;;;8.77;6.30;;;;;;;;;;4915924;29;20232;-76
2023/09/29 03:32:27;;;;;;;6.50;5.53;;;;;;;;;;4915318;29;20186;-76
2023/09/29 03:34:53;;;;;;;8.47;6.60;;;;;;;;;;4910612;29;20274;-76
2023/09/29 03:37:20;;;;;;;7.30;6.03;;;;;;;;;;4912770;29;20265;-77
2023/09/29 03:39:49;;;;;;;7.43;5.57;;;;;;;;;;4911363;29;20187;-77
2023/09/29 03:42:21;;;;;;;12.37;6.00;;;;;;;;;;4913048;29;20191;-77
2023/09/29 03:44:48;;;;;;;6.43;5.47;;;;;;;;;;4896151;29;20720;-76
2023/09/29 03:47:14;;;;;;;8.10;5.80;;;;;;;;;;4911725;29;20210;-77
2023/09/29 03:49:43;;;;;;;6.60;5.30;;;;;;;;;;4909019;29;20674;-77
2023/09/29 03:52:09;;;;;;;7.60;5.47;;;;;;;;;;4927260;29;20222;-77
2023/09/29 03:54:36;;;;;;;7.27;5.10;;;;;;;;;;4915226;29;20684;-76
2023/09/29 03:57:10;;;;;;;6.63;5.10;;;;;;;;;;4914517;29;20215;-76
2023/09/29 03:59:37;;;;;;;7.40;5.50;;;;;;;;;;4914583;29;20210;-76
2023/09/29 04:02:04;;;;;;;7.10;6.40;;;;;;;;;;4899088;29;20202;-76
2023/09/29 04:04:32;;;;;;;7.30;5.53;;;;;;;;;;4916055;29;20180;-77
2023/09/29 04:06:58;;;;;;;7.57;5.33;;;;;;;;;;4899433;29;20252;-76
2023/09/29 04:09:24;;;;;;;7.53;6.03;;;;;;;;;;4914539;29;20517;-77
2023/09/29 04:11:50;;;;;;;6.27;5.23;;;;;;;;;;4915811;29;20191;-76
2023/09/29 04:14:17;;;;;;;6.00;5.40;;;;;;;;;;4898755;29;20621;-76
2023/09/29 04:16:43;;;;;;;7.07;6.03;;;;;;;;;;4915230;29;20670;-76
2023/09/29 04:19:11;;;;;;;7.97;5.60;;;;;;;;;;4915635;29;20206;-76
2023/09/29 04:21:38;;;;;;;8.77;5.50;;;;;;;;;;4914688;29;20568;-77
2023/09/29 04:24:04;;;;;;;7.27;5.80;;;;;;;;;;4915456;29;20212;-77
2023/09/29 04:26:31;;;;;;;6.37;5.13;;;;;;;;;;4914286;29;20191;-76
2023/09/29 04:28:57;;;;;;;7.17;5.27;;;;;;;;;;4915187;29;20285;-77
2023/09/29 04:31:23;;;;;;;6.03;5.00;;;;;;;;;;4913159;29;20591;-76
2023/09/29 04:33:49;;;;;;;8.53;5.10;;;;;;;;;;4915183;29;20558;-76
2023/09/29 04:36:16;;;;;;;7.40;5.17;;;;;;;;;;4915126;29;20209;-76
2023/09/29 04:38:42;;;;;;;7.93;5.20;;;;;;;;;;4914268;29;20693;-76
2023/09/29 04:41:08;;;;;;;6.40;4.93;;;;;;;;;;4898167;29;20226;-76
2023/09/29 04:43:34;;;;;;;7.27;4.97;;;;;;;;;;4914786;29;20202;-76
2023/09/29 04:46:01;;;;;;;6.33;5.30;;;;;;;;;;4898406;29;20578;-77
2023/09/29 04:48:27;;;;;;;7.90;5.50;;;;;;;;;;4913285;29;20278;-77
2023/09/29 04:50:54;;;;;;;7.93;5.43;;;;;;;;;;4914388;29;20190;-77
2023/09/29 04:53:20;;;;;;;7.77;5.67;;;;;;;;;;4914030;29;20206;-76
2023/09/29 04:55:47;;;;;;;7.97;5.63;;;;;;;;;;4929120;29;20229;-76
2023/09/29 04:58:13;;;;;;;6.27;5.17;;;;;;;;;;4914572;29;20202;-77
2023/09/29 05:00:39;;;;;;;7.03;5.30;;;;;;;;;;4913502;29;20191;-76
2023/09/29 05:03:05;;;;;;;7.07;5.60;;;;;;;;;;4913995;29;20179;-76
2023/09/29 05:05:31;;;;;;;6.60;5.67;;;;;;;;;;4914471;29;20198;-76
2023/09/29 05:07:58;;;;;;;6.20;5.30;;;;;;;;;;4910598;29;20209;-76
2023/09/29 05:10:24;;;;;;;8.77;5.40;;;;;;;;;;4912185;29;20563;-76
2023/09/29 05:12:50;;;;;;;6.53;4.83;;;;;;;;;;4914429;29;20705;-76
2023/09/29 05:15:16;;;;;;;7.93;4.80;;;;;;;;;;4914587;29;20218;-77
2023/09/29 05:17:42;;;;;;;7.20;5.43;;;;;;;;;;4897459;29;20213;-76
2023/09/29 05:20:10;;;;;;;8.60;5.43;;;;;;;;;;4913908;29;20190;-77
2023/09/29 05:22:36;;;;;;;7.97;5.00;;;;;;;;;;4913103;29;20599;-76
2023/09/29 05:25:02;;;;;;;6.03;5.10;;;;;;;;;;4914360;29;20210;-76
2023/09/29 05:27:29;;;;;;;6.50;5.30;;;;;;;;;;4914131;29;20193;-76
2023/09/29 05:29:56;;;;;;;7.97;5.03;;;;;;;;;;4912849;29;20191;-77
2023/09/29 05:32:23;;;;;;;5.67;4.70;;;;;;;;;;4913024;29;20285;-76
2023/09/29 05:34:50;;;;;;;6.13;5.10;;;;;;;;;;4912111;29;20206;-76
2023/09/29 05:37:17;;;;;;;7.17;5.23;;;;;;;;;;4913146;29;20261;-77
2023/09/29 05:39:43;;;;;;;6.13;5.07;;;;;;;;;;4912827;29;20219;-77
2023/09/29 05:42:10;;;;;;;6.30;5.03;;;;;;;;;;4912186;29;20205;-77
2023/09/29 05:44:36;;;;;;;6.67;4.90;;;;;;;;;;4912000;29;20233;-76
2023/09/29 05:47:03;;;;;;;5.40;4.33;;;;;;;;;;4913940;29;20197;-76
2023/09/29 05:49:30;;;;;;;6.90;5.07;;;;;;;;;;4913884;29;20249;-77
2023/09/29 05:51:56;;;;;;;7.33;5.17;;;;;;;;;;4912750;29;20194;-77
2023/09/29 05:54:22;;;;;;;11.17;5.43;;;;;;;;;;4897137;29;20293;-77
2023/09/29 05:56:50;;;;;;;6.17;5.30;;;;;;;;;;4912731;29;20190;-77
2023/09/29 05:59:16;;;;;;;7.13;5.00;;;;;;;;;;4913321;29;20261;-77
2023/09/29 06:01:42;;;;;;;8.73;5.97;;;;;;;;;;4908361;29;20187;-76
2023/09/29 06:04:08;;;;;;;6.30;5.00;;;;;;;;;;4911231;29;20186;-76
2023/09/29 06:06:35;;;;;;;6.27;4.90;;;;;;;;;;4913230;29;20201;-76
2023/09/29 06:09:01;;;;;;;7.97;5.50;;;;;;;;;;4913563;29;20309;-77
2023/09/29 06:11:27;;;;;;;8.70;5.63;;;;;;;;;;4887671;29;20198;-76
2023/09/29 06:13:53;;;;;;;10.70;5.50;;;;;;;;;;4912243;29;20190;-77
2023/09/29 06:16:19;;;;;;;7.33;5.27;;;;;;;;;;4913888;29;20221;-76
2023/09/29 06:18:46;;;;;;;8.60;4.80;;;;;;;;;;4911058;29;20206;-77
2023/09/29 06:21:12;;;;;;;6.70;4.73;;;;;;;;;;4910821;29;20666;-76
2023/09/29 06:23:39;;;;;;;6.33;5.40;;;;;;;;;;4909758;29;20175;-74
2023/09/29 06:26:05;;;;;;;6.33;5.17;;;;;;;;;;4909554;29;20194;-75
2023/09/29 06:28:31;;;;;;;9.53;6.10;;;;;;;;;;4911124;29;20214;-74
2023/09/29 06:30:57;;;;;;;7.17;5.60;;;;;;;;;;4905722;29;20203;-74
2023/09/29 06:33:24;;;;;;;8.93;5.87;;;;;;;;;;4909007;29;20182;-74
2023/09/29 06:35:50;;;;;;;7.33;5.70;;;;;;;;;;4911733;29;20218;-74
2023/09/29 06:38:16;;;;;;;7.70;6.23;;;;;;;;;;4907660;29;20211;-74
2023/09/29 06:40:45;;;;;;;8.97;6.47;;;;;;;;;;4908646;29;20215;-75
2023/09/29 06:43:12;;;;;;;9.37;5.40;;;;;;;;;;4905144;29;20187;-74
2023/09/29 06:45:38;;;;;;;7.60;6.37;;;;;;;;;;4911248;29;20254;-75
2023/09/29 06:48:04;;;;;;;7.70;5.63;;;;;;;;;;4909841;29;20261;-74
2023/09/29 06:50:31;;;;;;;6.10;5.40;;;;;;;;;;4911863;29;20186;-74
2023/09/29 06:52:57;;;;;;;7.13;5.77;;;;;;;;;;4909610;29;20619;-74
2023/09/29 06:55:23;;;;;;;7.83;5.70;;;;;;;;;;4908430;29;20317;-77
2023/09/29 06:57:49;;;;;;;6.33;5.43;;;;;;;;;;4910655;29;20221;-74
2023/09/29 07:00:16;;;;;;;6.87;5.23;;;;;;;;;;4908997;29;20175;-74
2023/09/29 07:02:42;;;;;;;6.30;5.10;;;;;;;;;;4903729;29;20231;-74
2023/09/29 07:05:09;;;;;;;7.87;4.93;;;;;;;;;;4891178;29;20186;-74
2023/09/29 07:07:35;;;;;;;5.47;4.63;;;;;;;;;;4901258;29;20198;-74
2023/09/29 07:10:01;;;;;;;6.00;4.80;;;;;;;;;;4910258;29;20642;-74
2023/09/29 07:12:28;;;;;;;6.17;4.83;;;;;;;;;;4925136;29;20188;-74
2023/09/29 07:14:54;;;;;;;7.63;5.07;;;;;;;;;;4911823;29;20571;-74
2023/09/29 07:17:20;;;;;;;7.50;5.10;;;;;;;;;;4906750;29;20179;-74
2023/09/29 07:19:46;;;;;;;7.23;4.50;;;;;;;;;;4908939;29;20194;-74
2023/09/29 07:22:12;;;;;;;5.57;4.70;;;;;;;;;;4911813;29;20178;-74
2023/09/29 07:24:42;;;;;;;5.63;4.50;;;;;;;;;;4909262;29;20182;-75
2023/09/29 07:27:09;;;;;;;5.47;4.40;;;;;;;;;;4910748;29;20198;-74
2023/09/29 07:29:35;;;;;;;6.00;4.53;;;;;;;;;;4912525;29;20210;-75
2023/09/29 07:32:01;;;;;;;6.80;4.63;;;;;;;;;;4916388;29;20179;-75
2023/09/29 07:34:29;;;;;;;6.70;4.97;;;;;;;;;;4912394;29;20278;-79
2023/09/29 07:36:56;;;;;;;5.10;4.60;;;;;;;;;;4926169;29;20541;-74
2023/09/29 07:39:22;;;;;;;6.63;4.50;;;;;;;;;;4911810;29;20207;-75
2023/09/29 07:41:50;;;;;;;5.67;4.60;;;;;;;;;;4912420;29;20199;-74
2023/09/29 07:44:16;;;;;;;5.23;4.43;;;;;;;;;;4900867;29;20194;-74
2023/09/29 07:46:43;;;;;;;5.63;4.60;;;;;;;;;;4913276;29;20186;-74
2023/09/29 07:49:09;;;;;;;4.67;4.17;;;;;;;;;;4910422;29;20245;-74
2023/09/29 07:51:38;;;;;;;6.90;4.40;;;;;;;;;;4910285;29;20183;-74
2023/09/29 07:54:04;;;;;;;5.13;4.40;;;;;;;;;;4913209;29;20201;-74
2023/09/29 07:56:30;;;;;;;6.57;4.20;;;;;;;;;;4911177;29;20214;-74
2023/09/29 07:58:58;;;;;;;7.60;4.77;;;;;;;;;;4914029;29;20621;-75
2023/09/29 08:01:24;;;;;;;4.40;4.00;;;;;;;;;;4909678;29;20266;-75
2023/09/29 08:03:50;;;;;;;5.27;4.30;;;;;;;;;;4910836;29;20282;-75
2023/09/29 08:06:17;;;;;;;6.57;4.47;;;;;;;;;;4913772;29;20282;-81
2023/09/29 08:08:43;;;;;;;6.77;4.40;;;;;;;;;;4907964;29;20669;-75
2023/09/29 08:11:10;;;;;;;7.93;4.67;;;;;;;;;;4912123;29;20273;-75
2023/09/29 08:13:36;;;;;;;5.37;4.23;;;;;;;;;;4912835;29;20657;-75
2023/09/29 08:16:03;;;;;;;5.33;4.10;;;;;;;;;;4912310;29;20218;-75
2023/09/29 08:18:29;;;;;;;4.50;4.10;;;;;;;;;;4912761;29;20220;-75
2023/09/29 08:20:55;;;;;;;5.63;4.10;;;;;;;;;;4910008;29;20186;-75
2023/09/29 08:23:22;;;;;;;6.17;4.43;;;;;;;;;;4894171;29;20227;-74
2023/09/29 08:25:48;;;;;;;8.30;4.80;;;;;;;;;;4909976;29;20191;-74
2023/09/29 08:28:14;;;;;;;6.47;4.50;;;;;;;;;;4914065;29;20240;-75
2023/09/29 08:30:41;;;;;;;5.90;4.40;;;;;;;;;;4879225;29;20178;-78
2023/09/29 08:33:07;;;;;;;4.67;4.00;;;;;;;;;;4909443;29;20265;-74
2023/09/29 08:35:33;;;;;;;6.30;4.47;;;;;;;;;;4912208;29;20293;-85
2023/09/29 08:37:59;;;;;;;7.40;4.67;;;;;;;;;;4913548;29;20207;-75
2023/09/29 08:40:25;;;;;;;5.93;4.40;;;;;;;;;;4923547;29;20217;-75
2023/09/29 08:42:52;;;;;;;6.90;4.50;;;;;;;;;;4912595;29;20206;-74
2023/09/29 08:45:19;;;;;;;6.07;4.20;;;;;;;;;;4912602;29;20281;-74
2023/09/29 08:47:52;;;;;;;4.77;4.03;;;;;;;;;;4910227;29;20210;-75
2023/09/29 08:50:19;;;;;;;6.80;4.33;;;;;;;;;;4905501;29;20237;-74
2023/09/29 08:52:46;;;;;;;5.40;4.33;;;;;;;;;;4906511;29;20182;-74
2023/09/29 08:55:12;;;;;;;5.57;4.30;;;;;;;;;;4908655;29;20211;-74
2023/09/29 08:57:41;;;;;;;8.47;4.40;;;;;;;;;;4910295;29;20193;-75
2023/09/29 09:00:12;;;;;;;5.23;4.17;;;;;;;;;;4894768;29;20606;-75
2023/09/29 09:02:43;;;;;;;5.17;4.23;;;;;;;;;;4909545;29;20595;-74
2023/09/29 09:05:14;;;;;;;5.77;4.30;;;;;;;;;;4912901;29;20425;-75
2023/09/29 09:07:41;;;;;;;5.00;4.10;;;;;;;;;;4910133;29;20233;-74
2023/09/29 09:10:09;;;;;;;4.87;4.07;;;;;;;;;;4891891;29;20199;-75
2023/09/29 09:12:36;;;;;;;7.03;4.27;;;;;;;;;;4906550;29;20540;-74
2023/09/29 09:15:07;;;;;;;4.73;4.07;;;;;;;;;;4912333;29;20225;-74
2023/09/29 09:17:34;;;;;;;7.03;4.60;;;;;;;;;;4910538;29;20202;-78
2023/09/29 09:20:01;;;;;;;8.57;4.57;;;;;;;;;;4909451;29;20187;-74
2023/09/29 09:22:31;;;;;;;8.20;4.77;;;;;;;;;;4907399;29;20274;-74
2023/09/29 09:25:01;;;;;;;5.83;4.10;;;;;;;;;;4910054;29;20182;-75
2023/09/29 09:27:37;;;;;;;5.23;4.27;;;;;;;;;;4911827;29;20266;-76
2023/09/29 09:30:03;;;;;;;4.97;4.30;;;;;;;;;;4907850;29;20197;-76
2023/09/29 09:32:30;;;;;;;4.60;4.07;;;;;;;;;;4908858;29;20190;-76
2023/09/29 09:34:56;;;;;;;6.07;4.23;;;;;;;;;;4912991;29;20209;-76
2023/09/29 09:37:26;;;;;;;4.73;4.13;;;;;;;;;;4910154;29;20206;-76
2023/09/29 09:39:54;;;;;;;6.07;4.00;;;;;;;;;;4907675;29;20277;-76
2023/09/29 09:42:24;;;;;;;5.47;3.90;;;;;;;;;;4909039;29;20546;-76
2023/09/29 09:44:50;;;;;;;7.13;4.63;;;;;;;;;;4912134;29;20182;-76
2023/09/29 09:47:17;;;;;;;4.87;4.20;;;;;;;;;;4910208;29;20191;-76
2023/09/29 09:49:50;;;;;;;7.27;4.23;;;;;;;;;;4911827;29;20217;-76
2023/09/29 09:52:29;;;;;;;7.77;4.57;;;;;;;;;;4909097;29;20765;-76
2023/09/29 09:54:57;;;;;;;6.37;4.57;;;;;;;;;;4912055;29;20214;-76
2023/09/29 09:57:34;;;;;;;6.83;4.77;;;;;;;;;;4924949;29;20669;-76
2023/09/29 10:00:08;;;;;;;6.27;4.50;;;;;;;;;;4922970;29;20654;-76
2023/09/29 10:02:43;;;;;;;6.27;4.10;;;;;;;;;;4912545;29;20187;-86
2023/09/29 10:05:22;;;;;;;5.20;4.50;;;;;;;;;;4912998;29;20194;-79
2023/09/29 10:07:49;;;;;;;4.83;4.33;;;;;;;;;;4894058;29;20284;-78
2023/09/29 10:10:34;;;;;;;7.83;4.20;;;;;;;;;;4894325;29;20190;-78
2023/09/29 10:13:05;;;;;;;5.77;4.30;;;;;;;;;;4907929;29;20199;-78
2023/09/29 10:15:32;;;;;;;4.60;4.13;;;;;;;;;;4885026;29;20697;-78
2023/09/29 10:18:13;;;;;;;8.20;4.50;;;;;;;;;;4916396;29;20257;-85
2023/09/29 10:20:39;;;;;;;6.50;4.10;;;;;;;;;;4893478;29;20205;-78
2023/09/29 10:23:07;;;;;;;6.40;4.20;;;;;;;;;;4903714;29;20692;-82
2023/09/29 10:25:34;;;;;;;5.63;4.40;;;;;;;;;;4901680;29;20185;-85
2023/09/29 10:28:01;;;;;;;5.60;4.10;;;;;;;;;;4890118;29;20237;-85
2023/09/29 10:30:27;;;;;;;4.87;4.20;;;;;;;;;;4922908;29;20690;-78
2023/09/29 10:33:05;;;;;;;6.30;4.30;;;;;;;;;;4908013;29;20214;-79
2023/09/29 10:35:33;;;;;;;6.10;4.27;;;;;;;;;;4894505;29;20689;-81
2023/09/29 10:38:06;;;;;;;7.77;4.67;;;;;;;;;;4903694;29;20669;-81
2023/09/29 10:40:33;;;;;;;6.30;4.30;;;;;;;;;;4905493;29;20196;-79
2023/09/29 10:43:03;;;;;;;4.97;4.33;;;;;;;;;;4910460;29;20615;-83
2023/09/29 10:45:36;;;;;;;4.77;4.10;;;;;;;;;;4910046;29;20284;-80
2023/09/29 10:48:04;;;;;;;6.00;3.63;;;;;;;;;;4901262;29;20213;-79
2023/09/29 10:50:32;;;;;;;4.63;4.00;;;;;;;;;;4901603;29;24199;-79
2023/09/29 10:52:58;;;;;;;5.40;3.93;;;;;;;;;;4904140;29;20190;-78
2023/09/29 10:55:24;;;;;;;4.10;3.70;;;;;;;;;;4909608;29;20374;-77
2023/09/29 10:57:50;;;;;;;5.43;3.87;;;;;;;;;;4904865;29;20301;-77
2023/09/29 11:00:17;;;;;;;5.90;4.10;;;;;;;;;;4907088;29;20194;-77
2023/09/29 11:02:45;;;;;;;4.30;3.87;;;;;;;;;;4908937;29;20182;-77
2023/09/29 11:05:12;;;;;;;5.87;4.00;;;;;;;;;;4908442;29;20230;-77
2023/09/29 11:07:48;;;;;;;5.23;3.93;;;;;;;;;;4923780;29;20206;-77
2023/09/29 11:10:17;;;;;;;5.13;3.80;;;;;;;;;;4911765;29;20277;-77
2023/09/29 11:12:46;;;;;;;4.57;4.03;;;;;;;;;;4909360;29;20553;-77
2023/09/29 11:15:13;;;;;;;5.57;4.03;;;;;;;;;;4910969;29;20207;-78
2023/09/29 11:17:46;;;;;;;7.50;4.30;;;;;;;;;;4909376;29;20196;-84
2023/09/29 11:20:20;;;;;;;6.20;4.47;;;;;;;;;;4889396;29;20183;-77
2023/09/29 11:22:59;;;;;;;5.67;3.93;;;;;;;;;;4904785;29;20211;-77
2023/09/29 11:25:25;;;;;;;4.63;4.07;;;;;;;;;;4893158;29;20197;-77
2023/09/29 11:27:52;;;;;;;8.67;4.60;;;;;;;;;;4893494;29;20277;-76
2023/09/29 11:30:24;;;;;;;5.03;4.10;;;;;;;;;;4895834;29;20225;-81
2023/09/29 11:32:50;;;;;;;4.70;4.20;;;;;;;;;;4899546;29;20190;-77
2023/09/29 11:35:18;;;;;;;4.87;4.03;;;;;;;;;;4896934;29;20257;-77
2023/09/29 11:37:45;;;;;;;4.33;3.70;;;;;;;;;;4901993;29;20626;-77
2023/09/29 11:40:12;;;;;;;5.20;3.93;;;;;;;;;;4906503;29;20658;-77
2023/09/29 11:42:44;;;;;;;7.53;3.93;;;;;;;;;;4910250;29;20563;-77
2023/09/29 11:45:10;;;;;;;4.77;3.90;;;;;;;;;;4907773;29;20186;-77
2023/09/29 11:47:38;;;;;;;4.57;4.03;;;;;;;;;;4906814;29;20190;-77
2023/09/29 11:50:04;;;;;;;7.43;3.83;;;;;;;;;;4908548;29;20268;-77
2023/09/29 11:52:32;;;;;;;5.23;3.77;;;;;;;;;;4913095;29;20594;-77
2023/09/29 11:54:58;;;;;;;5.13;3.77;;;;;;;;;;4922800;29;20207;-77
2023/09/29 11:57:24;;;;;;;4.73;3.60;;;;;;;;;;4912630;29;20261;-80
2023/09/29 11:59:50;;;;;;;4.13;3.67;;;;;;;;;;4892767;29;20278;-77
2023/09/29 12:02:17;;;;;;;6.30;3.97;;;;;;;;;;4913858;29;20187;-77
2023/09/29 12:04:46;;;;;;;5.80;3.47;;;;;;;;;;4910083;29;20186;-85
2023/09/29 12:07:12;;;;;;;4.40;4.00;;;;;;;;;;4907598;29;20195;-77
2023/09/29 12:09:38;;;;;;;4.20;3.80;;;;;;;;;;4907895;29;20222;-88
2023/09/29 12:12:05;;;;;;;4.30;3.70;;;;;;;;;;4910118;29;20761;-81
2023/09/29 12:14:32;;;;;;;5.60;3.57;;;;;;;;;;4902767;29;20266;-78
2023/09/29 12:16:58;;;;;;;3.80;3.40;;;;;;;;;;4907743;29;20229;-78
2023/09/29 12:19:25;;;;;;;6.00;3.87;;;;;;;;;;4911182;29;20241;-79
2023/09/29 12:21:51;;;;;;;8.07;3.97;;;;;;;;;;4912060;29;20724;-78
2023/09/29 12:24:17;;;;;;;6.63;3.70;;;;;;;;;;4911635;29;20278;-85
2023/09/29 12:26:46;;;;;;;6.83;3.50;;;;;;;;;;4893498;29;20233;-89
2023/09/29 12:29:15;;;;;;;5.20;3.10;;;;;;;;;;4901009;29;20211;-83
2023/09/29 12:31:42;;;;;;;4.63;3.50;;;;;;;;;;4891581;29;20187;-83
2023/09/29 12:34:08;;;;;;;5.37;3.83;;;;;;;;;;4889533;29;20310;-77
2023/09/29 12:36:34;;;;;;;5.70;3.27;;;;;;;;;;4903753;29;20240;-77
2023/09/29 12:39:00;;;;;;;5.20;3.40;;;;;;;;;;4900509;29;20358;-77
2023/09/29 12:41:26;;;;;;;4.17;2.97;;;;;;;;;;4898038;29;20192;-76
2023/09/29 12:43:53;;;;;;;3.47;3.17;;;;;;;;;;4885462;29;20289;-77
2023/09/29 12:46:19;;;;;;;4.90;3.00;;;;;;;;;;4897879;29;20197;-77
2023/09/29 12:48:47;;;;;;;3.93;3.10;;;;;;;;;;4897317;29;20210;-77
2023/09/29 12:51:14;;;;;;;4.77;2.97;;;;;;;;;;4895660;29;20193;-77
2023/09/29 12:53:41;;;;;;;6.00;3.10;;;;;;;;;;4914125;29;20288;-77
2023/09/29 12:56:09;;;;;;;5.93;3.20;;;;;;;;;;4900091;29;20249;-77
2023/09/29 12:58:36;;;;;;;5.67;3.33;;;;;;;;;;4901441;29;20838;-78
2023/09/29 13:01:02;;;;;;;5.30;3.00;;;;;;;;;;4900474;29;20257;-77
2023/09/29 13:03:28;;;;;;;4.80;2.87;;;;;;;;;;4903879;29;20216;-77
2023/09/29 13:05:59;;;;;;;5.67;3.00;;;;;;;;;;4899701;29;20221;-77
2023/09/29 13:08:25;;;;;;;4.00;3.10;;;;;;;;;;4887094;29;20246;-77
2023/09/29 13:10:52;;;;;;;5.33;3.03;;;;;;;;;;4902640;29;20201;-77
2023/09/29 13:13:18;;;;;;;6.67;2.97;;;;;;;;;;4903958;29;20201;-77
2023/09/29 13:15:44;;;;;;;3.23;2.80;;;;;;;;;;4917883;29;20345;-78
2023/09/29 13:18:10;;;;;;;5.40;3.00;;;;;;;;;;4901057;29;20210;-77
2023/09/29 13:20:38;;;;;;;7.13;3.00;;;;;;;;;;4900217;29;20190;-77
2023/09/29 13:23:04;;;;;;;6.37;3.00;;;;;;;;;;4902899;29;20768;-77
2023/09/29 13:25:31;;;;;;;5.57;3.53;;;;;;;;;;4902155;29;20194;-77
2023/09/29 13:27:57;;;;;;;6.50;3.13;;;;;;;;;;4901946;29;20464;-77
2023/09/29 13:30:24;;;;;;;5.67;3.33;;;;;;;;;;4903100;29;20188;-77
2023/09/29 13:32:50;;;;;;;5.10;3.20;;;;;;;;;;4902562;29;20290;-76
2023/09/29 13:35:16;;;;;;;10.77;3.83;;;;;;;;;;4900349;29;20218;-77
2023/09/29 13:37:43;;;;;;;6.70;3.60;;;;;;;;;;4899989;29;20256;-77
2023/09/29 13:40:09;;;;;;;7.07;4.00;;;;;;;;;;4905404;29;20542;-77
2023/09/29 13:42:36;;;;;;;7.30;4.33;;;;;;;;;;4906174;23;20245;-78
2023/09/29 13:45:03;;;;;;;5.80;4.03;;;;;;;;;;4900074;29;20197;-77
2023/09/29 13:47:29;;;;;;;7.13;4.33;;;;;;;;;;4901240;29;20241;-78
2023/09/29 13:49:55;;;;;;;9.10;4.97;;;;;;;;;;4900484;29;20215;-78
2023/09/29 13:52:21;;;;;;;8.87;5.10;;;;;;;;;;4885144;29;20677;-78
2023/09/29 13:54:48;;;;;;;8.53;4.70;;;;;;;;;;4880488;29;20189;-78
2023/09/29 13:57:14;;;;;;;7.73;5.13;;;;;;;;;;4883426;29;20863;-79
2023/09/29 13:59:41;;;;;;;8.80;4.90;;;;;;;;;;4881500;29;20216;-78
2023/09/29 14:02:10;;;;;;;7.67;4.80;;;;;;;;;;4887656;29;20707;-80
2023/09/29 14:04:36;;;;;;;9.67;5.40;;;;;;;;;;4893498;29;20671;-75
2023/09/29 14:07:03;;;;;;;12.63;5.77;;;;;;;;;;4891416;29;20267;-79
2023/09/29 14:09:29;;;;;;;11.83;6.13;;;;;;;;;;4895020;29;20215;-81
2023/09/29 14:11:55;;;;;;;14.97;7.63;;;;;;;;;;4893851;29;20186;-81
2023/09/29 14:14:21;;;;;;;14.83;7.57;;;;;;;;;;4895230;29;20196;-80
2023/09/29 14:16:47;;;;;;;13.43;7.53;;;;;;;;;;4890434;29;20210;-80
2023/09/29 14:19:14;;;;;;;13.23;7.77;;;;;;;;;;4894076;29;20215;-78
2023/09/29 14:21:40;;;;;;;15.83;9.27;;;;;;;;;;4894904;29;20621;-77
2023/09/29 14:24:07;;;;;;;17.70;9.23;;;;;;;;;;4892809;29;20272;-79
2023/09/29 14:26:33;;;;;;;19.67;10.43;;;;;;;;;;4892136;29;20980;-79
2023/09/29 14:28:59;;;;;;;15.50;9.37;;;;;;;;;;4895511;29;20215;-78
2023/09/29 14:31:29;;;;;;;17.80;9.20;;;;;;;;;;4897867;29;20196;-78
2023/09/29 14:33:55;;;;;;;17.27;9.30;;;;;;;;;;4896931;29;20180;-79
2023/09/29 14:36:21;;;;;;;18.67;9.33;;;;;;;;;;4899349;29;20269;-79
2023/09/29 14:38:48;;;;;;;18.03;9.17;;;;;;;;;;4899129;29;20212;-79
2023/09/29 14:41:14;;;;;;;21.13;10.80;;;;;;;;;;4897785;29;20211;-78
2023/09/29 14:43:42;;;;;;;23.90;11.60;;;;;;;;;;4897682;29;20199;-79